Time;durP1;ratioP1;P1;durP2;ratioP2;P2;SDS_P1;SDS_P2;PMS_P1;PMS_P2;Temp;Humidity;BMP_temperature;BMP_pressure;BME280_temperature;BME280_humidity;BME280_pressure;Samples;Min_cycle;Max_cycle;Signal;HPM_P1;HPM_P2
2024/01/06 00:00:53;;;;;;;7.30;4.85;;;;;;;15.95;45.69;92021.81;5024401;28;20044;-91
2024/01/06 00:03:18;;;;;;;7.95;4.90;;;;;;;15.99;45.71;92019.47;5030599;28;20040;-93
2024/01/06 00:05:43;;;;;;;7.57;4.43;;;;;;;15.94;45.82;92010.16;5002117;28;20435;-91
2024/01/06 00:08:09;;;;;;;7.63;4.70;;;;;;;15.98;45.40;92007.13;5029968;28;20458;-94
2024/01/06 00:10:34;;;;;;;6.93;4.68;;;;;;;15.93;45.51;91997.78;5014981;28;20585;-92
2024/01/06 00:13:01;;;;;;;8.63;4.43;;;;;;;15.98;45.80;92002.41;4998347;28;20053;-94
2024/01/06 00:15:26;;;;;;;7.70;4.75;;;;;;;15.93;45.63;92003.25;5032838;28;20044;-91
2024/01/06 00:17:51;;;;;;;6.82;4.72;;;;;;;15.96;45.79;91994.03;5017610;28;20086;-94
2024/01/06 00:20:17;;;;;;;8.25;4.97;;;;;;;15.87;46.04;92005.34;5031927;28;20048;-93
2024/01/06 00:22:44;;;;;;;7.90;4.35;;;;;;;15.93;45.81;92016.88;5017090;28;20558;-92
2024/01/06 00:25:09;;;;;;;8.88;5.00;;;;;;;15.90;46.25;92011.75;5011057;28;20052;-92
2024/01/06 00:27:34;;;;;;;9.98;4.78;;;;;;;15.91;45.64;92003.03;5011039;28;20041;-93
2024/01/06 00:30:00;;;;;;;8.13;4.65;;;;;;;15.95;45.77;92019.81;5024484;28;20104;-94
2024/01/06 00:32:25;;;;;;;7.13;4.75;;;;;;;15.96;45.41;92021.28;5011680;28;20430;-92
2024/01/06 00:34:51;;;;;;;7.80;4.32;;;;;;;15.95;45.96;92024.53;5034793;28;20098;-91
2024/01/06 00:37:16;;;;;;;9.98;5.13;;;;;;;15.97;45.90;92025.47;5015601;28;20061;-92
2024/01/06 00:39:41;;;;;;;8.60;4.68;;;;;;;15.99;45.58;92019.47;5001630;28;20063;-93
2024/01/06 00:42:07;;;;;;;8.07;4.55;;;;;;;15.95;45.66;92016.34;5024111;28;20041;-92
2024/01/06 00:44:35;;;;;;;8.02;5.00;;;;;;;15.95;45.46;92014.34;5029144;28;20037;-92
2024/01/06 00:47:01;;;;;;;7.97;4.93;;;;;;;15.96;45.79;92031.44;5020118;28;20033;-93
2024/01/06 00:49:26;;;;;;;7.82;4.18;;;;;;;15.98;45.51;92026.19;5004353;28;20045;-92
2024/01/06 00:51:51;;;;;;;7.82;4.88;;;;;;;15.91;46.00;92019.41;5009860;28;20045;-92
2024/01/06 00:54:17;;;;;;;9.43;4.80;;;;;;;15.90;45.63;92017.19;5037938;28;20041;-94
2024/01/06 00:56:42;;;;;;;7.03;4.30;;;;;;;15.95;45.53;91994.53;5018199;28;20029;-93
2024/01/06 00:59:08;;;;;;;8.40;4.47;;;;;;;15.92;45.92;92003.78;5034354;28;20052;-92
2024/01/06 01:01:34;;;;;;;7.45;4.60;;;;;;;15.93;45.96;91999.78;5025244;28;20049;-92
2024/01/06 01:03:59;;;;;;;6.28;4.30;;;;;;;15.98;45.52;92013.31;5031522;28;20514;-92
2024/01/06 01:06:24;;;;;;;6.90;4.50;;;;;;;15.94;46.12;92009.44;5050537;28;20050;-92
2024/01/06 01:08:50;;;;;;;9.20;4.93;;;;;;;15.90;45.57;92014.47;5019925;28;20037;-93
2024/01/06 01:11:15;;;;;;;7.90;4.55;;;;;;;15.95;45.83;92016.34;5013952;28;20048;-93
2024/01/06 01:13:41;;;;;;;6.32;4.28;;;;;;;15.96;45.79;92026.72;5019781;28;20044;-93
2024/01/06 01:16:06;;;;;;;7.25;4.30;;;;;;;15.92;45.82;92028.31;5030846;28;20464;-91
2024/01/06 01:18:32;;;;;;;8.50;4.72;;;;;;;15.93;45.89;92032.50;5034129;28;20506;-93
2024/01/06 01:20:57;;;;;;;7.55;4.43;;;;;;;15.93;45.51;92035.22;5050657;28;20041;-91
2024/01/06 01:23:22;;;;;;;9.20;5.18;;;;;;;15.93;45.84;92049.56;5031491;28;20048;-92
2024/01/06 01:25:48;;;;;;;7.32;4.28;;;;;;;15.98;45.44;92042.56;5012508;28;20046;-93
2024/01/06 01:28:14;;;;;;;7.18;4.32;;;;;;;15.93;45.79;92051.56;5018106;28;20033;-92
2024/01/06 01:30:39;;;;;;;7.30;4.55;;;;;;;15.92;45.67;92042.66;5021090;28;20059;-92
2024/01/06 01:33:05;;;;;;;8.10;4.75;;;;;;;15.91;46.00;92043.91;5029527;28;20057;-93
2024/01/06 01:35:31;;;;;;;6.85;4.65;;;;;;;15.95;45.75;92035.44;5010556;28;20128;-93
2024/01/06 01:37:56;;;;;;;7.50;4.50;;;;;;;15.95;45.91;92040.88;5028597;28;20037;-93
2024/01/06 01:40:21;;;;;;;8.45;4.57;;;;;;;15.99;45.64;92046.75;5010569;28;20122;-91
2024/01/06 01:42:47;;;;;;;6.72;4.38;;;;;;;16.00;45.83;92040.75;5005458;28;20090;-92
2024/01/06 01:45:12;;;;;;;8.52;4.82;;;;;;;16.02;45.59;92040.25;5025185;28;20067;-93
2024/01/06 01:47:39;;;;;;;6.05;4.40;;;;;;;15.97;45.83;92024.72;5023886;28;20025;-94
2024/01/06 01:50:05;;;;;;;8.65;4.70;;;;;;;15.95;45.94;92033.44;5031119;28;20036;-93
2024/01/06 01:52:30;;;;;;;7.95;4.75;;;;;;;16.00;45.43;92031.84;5008012;28;20038;-93
2024/01/06 01:54:55;;;;;;;7.55;4.57;;;;;;;15.92;45.82;92025.56;5026937;28;20032;-94
2024/01/06 01:57:21;;;;;;;7.38;3.92;;;;;;;15.97;45.73;92019.28;5024713;28;20484;-92
2024/01/06 01:59:46;;;;;;;8.80;4.40;;;;;;;15.97;45.62;92016.56;5019199;28;20080;-91
2024/01/06 02:02:12;;;;;;;9.20;4.55;;;;;;;16.00;45.58;92002.59;5035891;28;20041;-91
2024/01/06 02:04:37;;;;;;;6.90;4.30;;;;;;;15.98;45.64;91999.69;5013127;28;20059;-92
2024/01/06 02:07:04;;;;;;;7.82;4.63;;;;;;;16.00;45.54;92012.78;5005365;28;20492;-92
2024/01/06 02:09:30;;;;;;;6.60;4.00;;;;;;;15.97;45.56;92006.38;5013486;28;20130;-92
2024/01/06 02:11:59;;;;;;;8.43;4.50;;;;;;;15.95;45.95;92002.72;5023629;28;20103;-94
2024/01/06 02:14:25;;;;;;;9.23;4.22;;;;;;;16.01;45.78;91998.63;5027770;28;20183;-93
2024/01/06 02:16:50;;;;;;;7.82;4.10;;;;;;;15.92;45.71;92003.78;5003042;28;20491;-93
2024/01/06 02:19:16;;;;;;;7.10;4.07;;;;;;;16.01;45.98;92001.34;5029912;28;20072;-93
2024/01/06 02:21:43;;;;;;;6.63;4.32;;;;;;;15.98;45.74;91996.94;5013858;28;20110;-92
2024/01/06 02:24:08;;;;;;;7.30;4.55;;;;;;;15.99;45.96;92005.84;5012208;28;20037;-93
2024/01/06 02:26:35;;;;;;;6.75;4.13;;;;;;;15.96;45.72;92004.91;5031219;28;20067;-92
2024/01/06 02:29:01;;;;;;;6.63;4.20;;;;;;;16.00;45.83;91997.16;5043857;28;20029;-93
2024/01/06 02:31:27;;;;;;;8.18;5.10;;;;;;;15.94;46.02;92010.16;4995809;28;20061;-93
2024/01/06 02:33:52;;;;;;;7.80;4.45;;;;;;;15.98;45.64;91991.50;5018724;28;20060;-91
2024/01/06 02:36:19;;;;;;;7.38;4.35;;;;;;;15.96;45.63;92001.47;5012578;28;20056;-92
2024/01/06 02:38:44;;;;;;;5.88;3.85;;;;;;;15.94;45.75;91999.25;5004249;28;20045;-94
2024/01/06 02:41:09;;;;;;;5.53;3.83;;;;;;;15.98;45.68;91994.22;5026910;28;20041;-91
2024/01/06 02:43:35;;;;;;;7.60;4.70;;;;;;;15.93;45.89;91999.78;5023545;28;20044;-92
2024/01/06 02:46:00;;;;;;;6.70;3.97;;;;;;;15.90;46.12;91998.13;5017579;28;20037;-92
2024/01/06 02:48:26;;;;;;;6.15;4.22;;;;;;;15.87;46.19;91991.00;5029347;28;20036;-94
2024/01/06 02:50:51;;;;;;;5.32;3.80;;;;;;;15.94;45.71;91996.53;5025088;28;20037;-91
2024/01/06 02:53:16;;;;;;;6.63;4.22;;;;;;;15.93;45.72;91995.06;5016297;28;20041;-94
2024/01/06 02:55:42;;;;;;;7.65;4.05;;;;;;;15.93;45.81;91986.16;4996058;28;20093;-93
2024/01/06 02:58:07;;;;;;;7.47;4.00;;;;;;;15.99;45.40;91981.34;5018337;28;20033;-92
2024/01/06 03:00:33;;;;;;;5.85;3.95;;;;;;;16.00;45.88;91985.53;5010032;28;20098;-94
2024/01/06 03:02:58;;;;;;;7.63;4.03;;;;;;;15.94;45.81;91982.19;5030013;28;20060;-94
2024/01/06 03:05:24;;;;;;;7.28;3.95;;;;;;;15.99;45.77;91973.16;5022637;28;20094;-91
2024/01/06 03:07:49;;;;;;;6.53;4.05;;;;;;;15.99;45.87;91967.69;5049324;28;20392;-93
2024/01/06 03:10:15;;;;;;;8.30;4.68;;;;;;;15.89;45.53;91975.59;5030699;28;20496;-92
2024/01/06 03:12:40;;;;;;;6.82;3.92;;;;;;;15.95;45.97;91978.19;5029271;28;20419;-92
2024/01/06 03:15:06;;;;;;;9.15;4.32;;;;;;;15.98;45.80;91971.69;5026601;28;20492;-92
2024/01/06 03:17:32;;;;;;;6.03;3.83;;;;;;;15.95;45.90;91959.84;5013408;28;20508;-91
2024/01/06 03:19:58;;;;;;;8.38;4.30;;;;;;;15.90;45.93;91955.25;5020165;28;20241;-92
2024/01/06 03:22:23;;;;;;;8.75;4.72;;;;;;;15.98;45.61;91958.78;5028723;28;20029;-92
2024/01/06 03:24:49;;;;;;;6.63;4.10;;;;;;;15.94;46.07;91957.66;5012479;28;20400;-91
2024/01/06 03:27:14;;;;;;;5.57;3.85;;;;;;;15.90;46.02;91960.69;5043128;28;20044;-91
2024/01/06 03:29:40;;;;;;;5.60;3.42;;;;;;;15.90;46.04;91954.50;5027788;28;20065;-93
2024/01/06 03:32:05;;;;;;;8.70;4.15;;;;;;;15.89;45.81;91961.22;5012615;28;20067;-92
2024/01/06 03:34:31;;;;;;;6.57;3.60;;;;;;;15.94;45.82;91955.66;5047388;28;20040;-92
2024/01/06 03:36:56;;;;;;;5.57;3.47;;;;;;;15.98;45.92;91958.78;5030613;28;20053;-92
2024/01/06 03:39:22;;;;;;;6.72;4.00;;;;;;;15.93;46.05;91951.47;5012830;28;20048;-94
2024/01/06 03:41:48;;;;;;;8.15;3.95;;;;;;;15.98;45.71;91945.16;5015340;28;20049;-92
2024/01/06 03:44:14;;;;;;;5.35;3.72;;;;;;;15.98;45.78;91953.34;5011925;28;20021;-93
2024/01/06 03:46:39;;;;;;;7.75;4.18;;;;;;;15.88;46.21;91949.59;5027086;28;20044;-91
2024/01/06 03:49:05;;;;;;;5.82;4.15;;;;;;;15.90;45.82;91955.25;5011434;28;20026;-93
2024/01/06 03:51:30;;;;;;;7.38;4.18;;;;;;;15.97;45.97;91951.16;5013859;28;20057;-91
2024/01/06 03:53:56;;;;;;;8.10;4.05;;;;;;;15.98;46.07;91947.88;5029615;28;20191;-94
2024/01/06 03:56:26;;;;;;;6.13;3.75;;;;;;;15.91;46.10;91947.81;5029608;28;20091;-91
2024/01/06 03:58:51;;;;;;;7.45;3.90;;;;;;;15.96;46.06;91950.41;5017384;28;20025;-92
2024/01/06 04:01:17;;;;;;;9.07;4.40;;;;;;;15.90;45.82;91955.25;5006935;28;20053;-92
2024/01/06 04:03:42;;;;;;;5.35;4.03;;;;;;;15.94;45.87;91957.66;5013299;28;20164;-93
2024/01/06 04:06:08;;;;;;;6.18;4.32;;;;;;;15.95;46.10;91962.56;5051893;28;20044;-93
2024/01/06 04:08:35;;;;;;;6.07;3.45;;;;;;;15.96;45.54;91955.88;5013546;28;20404;-94
2024/01/06 04:11:00;;;;;;;7.28;4.38;;;;;;;15.92;45.83;91963.63;5018659;28;20026;-90
2024/01/06 04:13:26;;;;;;;8.25;4.00;;;;;;;15.87;46.12;91964.47;5029434;28;20044;-92
2024/01/06 04:15:51;;;;;;;6.07;4.25;;;;;;;15.91;45.93;91967.63;5035860;28;20456;-91
2024/01/06 04:18:17;;;;;;;6.20;3.60;;;;;;;15.95;46.03;91972.75;5047375;28;20132;-94
2024/01/06 04:20:42;;;;;;;8.35;3.85;;;;;;;15.96;45.74;91976.94;5017415;28;20454;-93
2024/01/06 04:23:07;;;;;;;5.80;3.83;;;;;;;15.94;46.05;91974.72;5030409;28;20045;-91
2024/01/06 04:25:33;;;;;;;5.80;3.55;;;;;;;16.00;45.70;91980.06;5007101;28;20045;-91
2024/01/06 04:27:59;;;;;;;5.82;4.00;;;;;;;15.96;45.74;91976.94;5031300;28;20037;-93
2024/01/06 04:30:25;;;;;;;9.18;4.05;;;;;;;15.97;45.92;91978.41;5014575;28;20072;-91
2024/01/06 04:32:51;;;;;;;9.55;3.92;;;;;;;15.97;45.73;91978.41;5032994;28;20362;-92
2024/01/06 04:35:16;;;;;;;7.00;3.97;;;;;;;15.98;45.99;91980.59;5030523;28;20052;-92
2024/01/06 04:37:42;;;;;;;5.97;3.67;;;;;;;15.94;46.03;91977.47;5031478;28;20040;-93
2024/01/06 04:40:08;;;;;;;7.30;3.83;;;;;;;16.01;45.64;91987.72;5015641;28;20048;-94
2024/01/06 04:42:33;;;;;;;5.38;3.45;;;;;;;15.98;45.88;91988.03;5028555;28;20090;-93
2024/01/06 04:44:59;;;;;;;6.18;4.00;;;;;;;15.95;45.81;91981.66;5010599;28;20061;-94
2024/01/06 04:47:24;;;;;;;6.97;4.00;;;;;;;15.92;46.03;91998.31;5018185;28;20395;-91
2024/01/06 04:49:53;;;;;;;7.95;4.60;;;;;;;15.95;46.00;91994.53;5025282;28;20036;-92
2024/01/06 04:52:19;;;;;;;6.68;4.32;;;;;;;16.01;45.85;91995.16;5022432;28;20045;-92
2024/01/06 04:54:44;;;;;;;7.63;4.00;;;;;;;16.02;45.52;91996.63;5039144;28;20408;-91
2024/01/06 04:57:10;;;;;;;7.15;3.88;;;;;;;16.01;46.08;91995.91;5013005;28;20095;-91
2024/01/06 04:59:35;;;;;;;6.60;3.50;;;;;;;15.98;45.68;92002.41;5019458;28;20044;-94
2024/01/06 05:02:01;;;;;;;6.18;3.92;;;;;;;16.00;45.75;92008.06;5018413;28;20034;-91
2024/01/06 05:04:26;;;;;;;5.60;3.65;;;;;;;16.00;46.05;92002.59;5010994;28;20568;-91
2024/01/06 05:06:51;;;;;;;6.72;3.92;;;;;;;16.04;46.14;92003.00;5016608;28;20037;-91
2024/01/06 05:09:18;;;;;;;5.40;3.38;;;;;;;16.01;45.60;92000.63;5012456;28;20938;-92
2024/01/06 05:11:44;;;;;;;6.22;3.72;;;;;;;16.03;45.55;92011.69;5016827;28;20048;-91
2024/01/06 05:14:09;;;;;;;5.97;3.70;;;;;;;16.02;45.58;92012.97;5025579;28;20033;-94
2024/01/06 05:16:35;;;;;;;6.18;3.90;;;;;;;16.03;46.03;92009.69;5008882;28;20037;-93
2024/01/06 05:19:00;;;;;;;5.80;3.60;;;;;;;16.00;45.86;92018.22;5042000;28;20036;-94
2024/01/06 05:21:25;;;;;;;5.32;3.80;;;;;;;16.05;45.34;92014.63;5023967;28;20056;-91
2024/01/06 05:23:51;;;;;;;6.95;4.25;;;;;;;15.97;46.14;92022.75;5032945;28;20397;-92
2024/01/06 05:26:17;;;;;;;5.68;3.80;;;;;;;15.99;45.94;92014.78;5031375;28;20045;-94
2024/01/06 05:28:42;;;;;;;7.30;4.15;;;;;;;15.98;45.80;92029.66;5029860;28;20492;-92
2024/01/06 05:31:07;;;;;;;6.20;3.60;;;;;;;16.01;45.85;92025.88;5024910;28;20044;-93
2024/01/06 05:33:33;;;;;;;6.47;3.42;;;;;;;16.03;45.69;92031.50;5014678;28;20040;-93
2024/01/06 05:35:58;;;;;;;7.22;3.80;;;;;;;16.03;45.59;92030.78;5039749;28;20155;-91
2024/01/06 05:38:24;;;;;;;4.88;3.30;;;;;;;16.01;45.71;92033.31;5026965;28;20044;-94
2024/01/06 05:40:49;;;;;;;5.55;3.40;;;;;;;16.02;45.66;92037.50;5038061;28;20046;-95
2024/01/06 05:43:15;;;;;;;8.20;4.13;;;;;;;16.02;45.91;92042.97;5012422;28;20043;-92
2024/01/06 05:45:41;;;;;;;7.22;4.32;;;;;;;16.03;45.51;92042.41;5014762;28;20070;-93
2024/01/06 05:48:10;;;;;;;5.38;3.58;;;;;;;15.99;46.08;92060.38;5031166;28;20052;-93
2024/01/06 05:50:39;;;;;;;6.05;3.85;;;;;;;16.02;45.52;92059.31;5019048;28;20029;-93
2024/01/06 05:53:05;;;;;;;5.47;3.50;;;;;;;16.07;45.57;92058.44;5037009;28;20032;-91
2024/01/06 05:55:30;;;;;;;5.25;3.60;;;;;;;16.09;45.46;92058.66;5005106;28;20045;-93
2024/01/06 05:57:56;;;;;;;6.68;3.80;;;;;;;16.06;46.02;92067.88;5025779;28;20040;-93
2024/01/06 06:00:21;;;;;;;6.78;3.90;;;;;;;16.00;45.78;92073.47;5014808;28;20067;-90
2024/01/06 06:02:46;;;;;;;5.47;3.33;;;;;;;15.96;45.84;92083.22;5008384;28;20083;-91
2024/01/06 06:05:13;;;;;;;8.73;3.70;;;;;;;16.08;45.95;92076.28;5029125;28;20037;-91
2024/01/06 06:07:38;;;;;;;6.57;3.88;;;;;;;16.07;46.01;92082.97;5010147;28;20037;-92
2024/01/06 06:10:07;;;;;;;5.82;3.55;;;;;;;16.03;46.16;92077.13;5023097;28;20037;-91
2024/01/06 06:12:32;;;;;;;5.10;3.30;;;;;;;16.08;45.87;92085.19;5007400;28;20096;-91
2024/01/06 06:14:59;;;;;;;6.45;3.17;;;;;;;16.06;45.84;92093.16;5010023;28;20033;-92
2024/01/06 06:17:25;;;;;;;5.45;3.72;;;;;;;15.95;45.63;92093.38;5013017;28;20044;-91
2024/01/06 06:19:51;;;;;;;7.07;3.95;;;;;;;16.02;45.81;92097.47;5005176;28;20064;-93
2024/01/06 06:22:16;;;;;;;5.72;3.80;;;;;;;15.99;45.80;92093.81;5059290;28;20163;-92
2024/01/06 06:24:42;;;;;;;7.18;4.15;;;;;;;15.98;45.87;92092.34;5033063;28;20078;-91
2024/01/06 06:27:08;;;;;;;5.50;3.72;;;;;;;15.98;46.20;92097.06;5049217;28;20045;-92
2024/01/06 06:29:34;;;;;;;6.07;3.70;;;;;;;16.01;45.73;92098.72;5050016;28;20037;-92
2024/01/06 06:31:59;;;;;;;6.70;3.60;;;;;;;15.97;45.99;92107.22;5033008;28;20082;-92
2024/01/06 06:34:25;;;;;;;4.75;3.10;;;;;;;16.01;45.90;92109.63;5032500;28;20033;-94
2024/01/06 06:36:50;;;;;;;4.68;3.22;;;;;;;16.03;45.89;92109.81;5033133;28;20055;-91
2024/01/06 06:39:15;;;;;;;5.15;3.80;;;;;;;15.99;46.06;92117.59;5033034;28;20048;-92
2024/01/06 06:41:44;;;;;;;5.72;3.38;;;;;;;15.98;45.93;92122.31;5038504;28;20040;-91
2024/01/06 06:44:10;;;;;;;5.68;4.03;;;;;;;16.03;46.09;92120.72;5027516;28;20025;-92
2024/01/06 06:46:36;;;;;;;5.85;4.00;;;;;;;16.02;45.62;92119.28;5029700;28;20048;-92
2024/01/06 06:49:02;;;;;;;6.65;3.88;;;;;;;16.07;45.73;92121.16;5015780;28;20115;-92
2024/01/06 06:51:28;;;;;;;5.78;3.58;;;;;;;16.08;46.01;92125.34;4999108;28;20064;-91
2024/01/06 06:53:56;;;;;;;6.28;4.00;;;;;;;15.95;46.17;92128.09;5025317;28;20039;-93
2024/01/06 06:56:22;;;;;;;6.05;3.95;;;;;;;15.97;45.83;92131.75;5018878;28;20128;-91
2024/01/06 06:58:48;;;;;;;6.10;3.38;;;;;;;16.04;45.98;92127.63;5026676;28;20041;-92
2024/01/06 07:01:15;;;;;;;6.00;3.88;;;;;;;15.99;46.00;92131.22;5029251;28;20075;-92
2024/01/06 07:03:40;;;;;;;5.95;3.20;;;;;;;15.97;46.04;92134.47;5038610;28;20500;-92
2024/01/06 07:06:06;;;;;;;4.80;3.25;;;;;;;16.03;45.69;92137.81;5027142;28;20067;-91
2024/01/06 07:08:31;;;;;;;5.80;3.83;;;;;;;15.98;46.00;92146.13;5027816;28;20037;-93
2024/01/06 07:10:58;;;;;;;7.72;3.63;;;;;;;15.99;45.91;92133.97;5003828;28;20037;-93
2024/01/06 07:13:23;;;;;;;4.45;3.55;;;;;;;16.01;46.17;92145.81;5014024;28;20448;-92
2024/01/06 07:15:48;;;;;;;4.40;3.13;;;;;;;15.96;45.83;92149.38;5016368;28;20038;-91
2024/01/06 07:18:14;;;;;;;5.85;3.78;;;;;;;15.98;45.86;92155.03;5019159;28;20038;-92
2024/01/06 07:20:39;;;;;;;5.65;3.63;;;;;;;15.97;45.72;92159.00;5013355;28;20045;-92
2024/01/06 07:23:05;;;;;;;5.55;3.33;;;;;;;16.03;45.71;92159.63;5009321;28;20045;-93
2024/01/06 07:25:30;;;;;;;6.20;4.03;;;;;;;15.99;46.00;92158.50;5020433;28;20413;-93
2024/01/06 07:27:56;;;;;;;4.63;3.30;;;;;;;16.02;45.92;92162.91;5025345;28;20040;-92
2024/01/06 07:30:21;;;;;;;5.03;3.15;;;;;;;16.05;45.87;92162.56;5008255;28;20064;-91
2024/01/06 07:32:47;;;;;;;5.60;3.45;;;;;;;16.04;45.92;92172.00;5031313;28;20040;-92
2024/01/06 07:35:13;;;;;;;6.10;3.25;;;;;;;16.06;45.62;92169.47;5040392;28;20029;-90
2024/01/06 07:37:39;;;;;;;5.13;3.50;;;;;;;16.05;45.63;92165.28;5011600;28;20464;-92
2024/01/06 07:40:05;;;;;;;6.03;3.60;;;;;;;16.05;45.70;92172.72;5030066;28;20032;-92
2024/01/06 07:42:31;;;;;;;5.55;3.42;;;;;;;16.03;45.79;92173.25;5031059;28;20053;-92
2024/01/06 07:44:56;;;;;;;5.45;3.30;;;;;;;16.02;45.96;92171.78;5017370;28;20040;-91
2024/01/06 07:47:22;;;;;;;5.65;3.30;;;;;;;16.06;45.92;92176.91;5016227;28;20384;-91
2024/01/06 07:49:48;;;;;;;5.68;2.97;;;;;;;16.02;45.99;92169.06;5022013;28;20488;-94
2024/01/06 07:52:13;;;;;;;4.85;3.17;;;;;;;16.03;45.72;92173.25;5013518;28;20037;-93
2024/01/06 07:54:39;;;;;;;6.78;3.15;;;;;;;16.07;46.14;92175.66;5052560;28;20039;-92
2024/01/06 07:57:04;;;;;;;5.28;3.25;;;;;;;16.05;45.51;92178.91;5023750;28;20528;-91
2024/01/06 07:59:30;;;;;;;6.65;3.92;;;;;;;16.03;45.83;92175.97;5002164;28;20491;-92
2024/01/06 08:01:56;;;;;;;5.32;2.95;;;;;;;16.00;46.02;92176.31;5019857;28;20037;-92
2024/01/06 08:04:21;;;;;;;3.97;3.25;;;;;;;16.02;46.07;92179.25;5015135;28;20561;-92
2024/01/06 08:06:48;;;;;;;4.78;3.40;;;;;;;15.98;46.05;92179.56;5012963;28;20045;-92
2024/01/06 08:09:14;;;;;;;4.75;3.08;;;;;;;16.10;45.82;92182.78;5030128;28;20039;-91
2024/01/06 08:11:39;;;;;;;4.60;3.20;;;;;;;16.07;45.52;92184.56;5031858;28;20045;-91
2024/01/06 08:14:05;;;;;;;5.15;3.33;;;;;;;16.00;45.80;92182.50;5030384;28;20033;-93
2024/01/06 08:16:30;;;;;;;5.85;3.42;;;;;;;16.05;45.78;92189.81;5019882;28;20049;-91
2024/01/06 08:18:56;;;;;;;5.22;3.35;;;;;;;16.05;45.85;92192.53;5024038;28;20041;-92
2024/01/06 08:21:21;;;;;;;4.55;3.10;;;;;;;16.02;45.67;92195.59;5008444;28;20037;-92
2024/01/06 08:23:47;;;;;;;4.30;2.88;;;;;;;16.01;45.91;92197.59;5007163;28;20053;-93
2024/01/06 08:26:12;;;;;;;4.95;3.40;;;;;;;15.96;45.63;92197.69;5005282;28;20033;-91
2024/01/06 08:28:37;;;;;;;6.20;3.40;;;;;;;15.97;46.09;92199.91;5011798;28;20037;-93
2024/01/06 08:31:03;;;;;;;5.25;3.25;;;;;;;15.94;45.88;92206.38;5026169;28;20033;-91
2024/01/06 08:33:28;;;;;;;6.38;3.42;;;;;;;16.00;45.91;92209.03;5009267;28;20454;-91
2024/01/06 08:35:54;;;;;;;4.95;3.58;;;;;;;15.99;45.82;92200.09;5027756;28;20036;-90
2024/01/06 08:38:22;;;;;;;5.95;3.28;;;;;;;16.03;45.69;92207.94;5026784;28;20041;-91
2024/01/06 08:40:50;;;;;;;5.28;3.72;;;;;;;16.00;45.88;92214.47;5020904;28;20566;-92
2024/01/06 08:43:15;;;;;;;4.05;2.80;;;;;;;15.96;45.94;92214.78;5030050;28;20048;-93
2024/01/06 08:45:41;;;;;;;5.40;3.17;;;;;;;15.99;45.74;92224.63;5022397;28;20038;-92
2024/01/06 08:48:06;;;;;;;5.35;3.70;;;;;;;16.02;45.85;92222.88;5008033;28;20037;-92
2024/01/06 08:50:32;;;;;;;5.22;3.00;;;;;;;16.05;46.05;92221.78;5012080;28;20480;-92
2024/01/06 08:52:57;;;;;;;7.07;3.67;;;;;;;15.96;45.84;92222.94;5020219;28;20037;-91
2024/01/06 08:55:23;;;;;;;3.75;3.08;;;;;;;16.08;45.79;92226.94;5005464;28;20036;-94
2024/01/06 08:57:48;;;;;;;5.60;3.50;;;;;;;16.02;45.83;92222.88;5018404;28;20041;-92
2024/01/06 09:00:14;;;;;;;6.22;3.33;;;;;;;16.06;45.71;92229.44;5035805;28;20037;-91
2024/01/06 09:02:39;;;;;;;5.05;3.40;;;;;;;16.01;46.01;92227.56;5000042;28;20105;-92
2024/01/06 09:05:08;;;;;;;6.32;3.20;;;;;;;16.06;45.91;92228.72;5031558;28;20037;-92
2024/01/06 09:07:33;;;;;;;4.95;3.05;;;;;;;16.07;45.47;92235.63;5029959;28;20144;-92
2024/01/06 09:09:59;;;;;;;4.20;2.90;;;;;;;16.03;45.55;92235.22;5043476;28;20439;-91
2024/01/06 09:12:25;;;;;;;5.13;3.20;;;;;;;16.01;45.59;92235.75;5026460;28;20098;-93
2024/01/06 09:14:50;;;;;;;5.68;3.53;;;;;;;15.99;45.48;92235.53;4994867;28;20515;-93
2024/01/06 09:17:16;;;;;;;6.53;3.70;;;;;;;16.01;45.29;92241.22;5042586;28;20044;-93
2024/01/06 09:19:41;;;;;;;6.90;3.65;;;;;;;16.02;45.69;92247.38;5008904;28;20045;-90
2024/01/06 09:22:07;;;;;;;5.30;3.22;;;;;;;16.02;45.45;92255.56;5024067;28;20525;-92
2024/01/06 09:24:33;;;;;;;5.68;3.13;;;;;;;16.05;45.23;92254.50;5040356;28;20049;-90
2024/01/06 09:26:58;;;;;;;5.13;3.72;;;;;;;16.07;45.36;92257.44;5031225;28;20052;-91
2024/01/06 09:29:24;;;;;;;5.57;2.90;;;;;;;16.04;45.44;92253.75;5030564;28;20350;-92
2024/01/06 09:31:49;;;;;;;4.07;2.92;;;;;;;16.01;45.46;92260.28;5010351;28;20041;-92
2024/01/06 09:34:15;;;;;;;6.10;3.47;;;;;;;16.02;45.46;92250.81;5030295;28;20044;-91
2024/01/06 09:36:40;;;;;;;5.72;4.05;;;;;;;16.00;45.66;92255.34;5014257;28;20040;-93
2024/01/06 09:39:07;;;;;;;4.03;3.33;;;;;;;16.06;45.67;92253.25;5026765;28;20068;-93
2024/01/06 09:41:33;;;;;;;4.50;3.22;;;;;;;16.08;45.47;92256.19;5036189;28;20615;-91
2024/01/06 09:43:59;;;;;;;4.78;3.10;;;;;;;16.01;45.72;92251.38;5037949;28;20044;-91
2024/01/06 09:46:31;;;;;;;4.38;2.88;;;;;;;16.09;45.46;92252.19;5001593;28;20411;-92
2024/01/06 09:48:58;;;;;;;4.20;3.10;;;;;;;16.09;45.15;92252.94;5020644;28;20036;-91
2024/01/06 09:51:23;;;;;;;6.07;3.50;;;;;;;16.02;45.52;92253.56;5018500;28;20127;-91
2024/01/06 09:53:59;;;;;;;5.20;2.97;;;;;;;16.08;45.45;92258.91;5030861;28;20041;-91
2024/01/06 09:56:26;;;;;;;5.07;3.10;;;;;;;16.05;45.87;92260.69;5007439;28;20041;-93
2024/01/06 09:58:52;;;;;;;3.63;2.78;;;;;;;16.00;45.48;92244.44;5009950;28;20101;-93
2024/01/06 10:01:17;;;;;;;4.45;3.10;;;;;;;16.07;45.49;92250.00;5016879;28;20053;-91
2024/01/06 10:03:43;;;;;;;5.25;3.50;;;;;;;16.11;45.12;92244.97;5021615;28;20043;-92
2024/01/06 10:06:09;;;;;;;5.57;3.20;;;;;;;16.06;45.53;92245.81;5032989;28;20049;-91
2024/01/06 10:08:35;;;;;;;4.57;2.97;;;;;;;16.06;45.39;92243.06;5039154;28;20242;-92
2024/01/06 10:11:01;;;;;;;4.07;2.60;;;;;;;16.06;45.63;92237.63;5048600;28;20115;-92
2024/01/06 10:13:30;;;;;;;4.43;2.97;;;;;;;16.02;45.89;92241.94;5025537;28;20036;-93
2024/01/06 10:15:56;;;;;;;5.40;3.22;;;;;;;16.09;45.37;92246.75;5017982;28;20033;-92
2024/01/06 10:18:25;;;;;;;4.22;2.97;;;;;;;15.98;45.62;92238.78;5033295;28;20044;-91
2024/01/06 10:20:52;;;;;;;3.72;2.40;;;;;;;16.01;45.60;92238.47;5030829;28;20067;-92
2024/01/06 10:23:17;;;;;;;4.22;3.05;;;;;;;16.00;45.58;92244.44;5032279;28;20047;-91
2024/01/06 10:25:43;;;;;;;4.38;3.08;;;;;;;15.97;45.86;92235.31;5034063;28;20036;-91
2024/01/06 10:28:15;;;;;;;4.78;3.10;;;;;;;15.99;45.55;92237.53;5033585;28;20044;-92
2024/01/06 10:30:42;;;;;;;5.38;3.10;;;;;;;16.04;45.94;92231.97;5023035;28;20099;-93
2024/01/06 10:33:09;;;;;;;4.18;2.72;;;;;;;16.06;45.48;92248.53;5033088;28;20048;-91
2024/01/06 10:35:36;;;;;;;4.35;3.08;;;;;;;15.99;45.77;92242.97;5015878;28;20032;-92
2024/01/06 10:38:03;;;;;;;4.72;3.20;;;;;;;16.06;45.70;92239.63;5016740;28;20042;-93
2024/01/06 10:40:28;;;;;;;6.68;3.17;;;;;;;15.99;45.98;92240.25;5023446;28;20073;-93
2024/01/06 10:42:56;;;;;;;5.03;3.17;;;;;;;16.02;45.52;92234.47;5014441;28;20082;-91
2024/01/06 10:45:21;;;;;;;5.07;2.95;;;;;;;16.12;45.49;92240.25;4998885;28;20029;-91
2024/01/06 10:47:47;;;;;;;4.38;2.90;;;;;;;16.06;46.04;92237.63;5026947;28;20041;-92
2024/01/06 10:50:14;;;;;;;3.55;2.60;;;;;;;16.08;45.72;92234.38;5022317;28;20056;-92
2024/01/06 10:52:41;;;;;;;3.97;2.83;;;;;;;16.06;45.37;92218.53;5024185;28;20037;-94
2024/01/06 10:55:07;;;;;;;4.45;2.70;;;;;;;16.09;45.71;92222.22;5010958;28;20092;-91
2024/01/06 10:57:32;;;;;;;3.97;2.80;;;;;;;16.07;45.59;92228.19;5025358;28;20029;-92
2024/01/06 10:59:59;;;;;;;3.08;2.75;;;;;;;16.13;45.46;92219.19;5032102;28;20484;-92
2024/01/06 11:02:25;;;;;;;3.42;2.50;;;;;;;16.12;45.74;92226.63;5012025;28;20038;-91
2024/01/06 11:04:50;;;;;;;4.18;2.78;;;;;;;16.10;45.87;92218.22;5047516;28;20041;-93
2024/01/06 11:07:22;;;;;;;4.00;2.70;;;;;;;16.09;45.75;92212.03;5051398;28;20483;-92
2024/01/06 11:10:11;;;;;;;4.40;2.63;;;;;;;16.07;45.82;92222.00;5031338;28;20098;-93
2024/01/06 11:12:37;;;;;;;4.32;3.25;;;;;;;16.06;45.61;92213.09;5062240;28;20063;-92
2024/01/06 11:15:04;;;;;;;3.83;2.80;;;;;;;16.10;45.59;92216.25;5026378;28;20515;-90
2024/01/06 11:17:53;;;;;;;4.25;2.95;;;;;;;16.03;45.83;92210.66;5025464;28;20033;-91
2024/01/06 11:20:21;;;;;;;4.90;3.13;;;;;;;15.99;45.91;92213.75;5024518;28;20129;-93
2024/01/06 11:22:46;;;;;;;3.55;2.65;;;;;;;16.02;45.72;92214.69;5024886;28;20037;-92
2024/01/06 11:25:14;;;;;;;4.32;3.20;;;;;;;16.03;45.83;92213.41;5032100;28;20518;-91
2024/01/06 11:27:39;;;;;;;3.80;2.70;;;;;;;15.98;46.04;92206.81;5022007;28;20042;-92